createdAt,value
2022-08-22T00:02:33.398Z,65.91
2022-08-22T00:02:43.019Z,58.67
2022-08-22T00:02:52.802Z,53.87
2022-08-22T00:03:08.326Z,58.30
2022-08-22T00:05:11.687Z,68.85
2022-08-22T00:07:54.116Z,68.59
2022-08-22T00:10:28.207Z,66.28
2022-08-22T00:13:10.242Z,68.30
2022-08-22T00:15:53.259Z,65.94
2022-08-22T00:18:44.282Z,66.54
2022-08-22T00:21:17.930Z,66.02
2022-08-22T00:24:02.050Z,67.48
2022-08-22T00:26:45.098Z,67.17
2022-08-22T00:29:25.926Z,66.77
2022-08-22T00:32:33.867Z,69.10
2022-08-22T00:35:29.677Z,68.71
2022-08-22T00:38:02.902Z,66.78
2022-08-22T00:40:56.527Z,65.51
2022-08-22T00:43:42.812Z,69.05
2022-08-22T00:46:42.201Z,64.83
2022-08-22T00:49:18.153Z,67.08
2022-08-22T00:52:04.683Z,67.42
2022-08-22T00:54:35.035Z,66.49
2022-08-22T00:57:30.963Z,69.49
2022-08-22T01:00:12.416Z,64.60
2022-08-22T01:03:11.649Z,68.70
2022-08-22T01:06:11.572Z,68.73
2022-08-22T01:09:14.755Z,65.98
2022-08-22T01:11:44.871Z,66.47
2022-08-22T01:14:49.662Z,68.54
2022-08-22T01:17:49.032Z,68.71
2022-08-22T01:20:51.947Z,67.87
2022-08-22T01:23:40.424Z,67.87
2022-08-22T01:26:47.902Z,68.00
2022-08-22T01:29:34.657Z,63.82
2022-08-22T01:32:48.379Z,66.64
2022-08-22T01:35:15.811Z,63.46
2022-08-22T01:38:23.771Z,66.17
2022-08-22T01:41:03.005Z,65.87
2022-08-22T01:44:07.581Z,66.04
2022-08-22T01:47:13.027Z,64.20
2022-08-22T01:49:48.980Z,63.86
2022-08-22T01:52:34.565Z,63.82
2022-08-22T01:55:29.627Z,63.85
2022-08-22T01:58:00.897Z,60.97
2022-08-22T02:00:51.779Z,62.37
2022-08-22T02:03:32.956Z,62.41
2022-08-22T02:06:08.355Z,60.97
2022-08-22T02:08:49.560Z,58.95
2022-08-22T02:12:21.575Z,60.53
2022-08-22T02:15:26.529Z,60.01
2022-08-22T02:18:05.745Z,59.28
2022-08-22T02:20:48.114Z,58.90
2022-08-22T02:23:25.686Z,58.44
2022-08-22T02:26:05.087Z,57.66
2022-08-22T02:28:57.447Z,57.18
2022-08-22T02:31:41.584Z,57.21
2022-08-22T02:34:39.040Z,56.22
2022-08-22T02:37:18.395Z,54.54
2022-08-22T02:40:09.218Z,53.72
2022-08-22T02:42:43.561Z,49.81
2022-08-22T02:45:22.946Z,47.11
2022-08-22T02:47:57.557Z,45.11
2022-08-22T02:50:34.067Z,43.42
2022-08-22T02:53:19.606Z,42.43
2022-08-22T02:56:00.689Z,40.70
2022-08-22T02:58:59.937Z,40.45
2022-08-22T03:01:30.483Z,38.01
2022-08-22T03:04:22.945Z,38.26
2022-08-22T03:07:36.795Z,38.20
2022-08-22T03:10:18.323Z,34.94
2022-08-22T03:13:10.032Z,34.71
2022-08-22T03:15:48.473Z,33.41
2022-08-22T03:18:20.550Z,32.41
2022-08-22T03:21:06.553Z,32.73
2022-08-22T03:23:33.950Z,31.09
2022-08-22T03:26:10.106Z,29.81
2022-08-22T03:28:59.093Z,30.08
2022-08-22T03:31:30.554Z,28.69
2022-08-22T03:34:22.567Z,28.82
2022-08-22T03:37:02.995Z,29.03
2022-08-22T03:39:49.023Z,27.91
2022-08-22T03:42:34.798Z,26.22
2022-08-22T03:45:27.855Z,26.49
2022-08-22T03:48:33.969Z,26.15
2022-08-22T03:51:29.407Z,26.77
2022-08-22T03:54:08.574Z,25.92
2022-08-22T03:56:57.471Z,24.69
2022-08-22T04:00:04.929Z,24.82
2022-08-22T04:03:05.843Z,24.89
2022-08-22T04:05:36.276Z,23.59
2022-08-22T04:08:44.722Z,23.77
2022-08-22T04:11:31.942Z,22.36
2022-08-22T04:14:17.910Z,23.06
2022-08-22T04:16:56.622Z,21.99
2022-08-22T04:19:42.807Z,21.48
2022-08-22T04:22:42.077Z,21.82
2022-08-22T04:25:28.242Z,21.59
2022-08-22T04:28:05.629Z,20.30
2022-08-22T04:30:44.559Z,20.12
2022-08-22T04:33:23.760Z,20.16
2022-08-22T04:36:13.898Z,20.41
2022-08-22T04:39:19.894Z,19.83
2022-08-22T04:42:16.283Z,19.08
2022-08-22T04:45:02.319Z,19.17
2022-08-22T04:47:34.533Z,18.83
2022-08-22T04:50:26.438Z,18.75
2022-08-22T04:53:08.907Z,18.88
2022-08-22T04:55:56.028Z,18.52
2022-08-22T04:58:39.069Z,17.69
2022-08-22T05:01:17.048Z,17.76
2022-08-22T05:03:57.690Z,18.37
2022-08-22T05:06:29.966Z,18.11
2022-08-22T05:09:03.793Z,18.25
2022-08-22T05:11:34.192Z,17.89
2022-08-22T05:14:15.557Z,18.24
2022-08-22T05:16:46.364Z,17.66
2022-08-22T05:19:37.614Z,18.07
2022-08-22T05:22:16.094Z,17.42
2022-08-22T05:24:48.774Z,16.99
2022-08-22T05:27:24.748Z,16.97
2022-08-22T05:30:00.996Z,16.32
2022-08-22T05:32:40.455Z,16.13
2022-08-22T05:35:10.190Z,15.99
2022-08-22T05:37:39.920Z,16.13
2022-08-22T05:40:11.211Z,15.77
2022-08-22T05:42:38.758Z,15.54
2022-08-22T05:45:12.293Z,15.05
2022-08-22T05:47:45.736Z,14.85
2022-08-22T05:50:35.081Z,15.48
2022-08-22T05:53:17.714Z,15.25
2022-08-22T05:56:04.901Z,14.98
2022-08-22T05:58:38.402Z,14.18
2022-08-22T06:01:20.918Z,14.43
2022-08-22T06:04:06.046Z,14.63
2022-08-22T06:06:42.113Z,14.25
2022-08-22T06:09:35.257Z,14.45
2022-08-22T06:12:16.500Z,13.95
2022-08-22T06:15:27.379Z,13.87
2022-08-22T06:18:07.259Z,13.30
2022-08-22T06:20:34.671Z,13.13
2022-08-22T06:23:04.057Z,12.85
2022-08-22T06:25:34.945Z,12.96
2022-08-22T06:28:07.851Z,13.19
2022-08-22T06:30:39.813Z,12.81
2022-08-22T06:33:12.873Z,12.73
2022-08-22T06:36:20.539Z,12.26
2022-08-22T06:39:46.667Z,12.73
2022-08-22T06:42:24.533Z,12.33
2022-08-22T06:44:58.167Z,11.85
2022-08-22T06:47:28.570Z,11.82
2022-08-22T06:50:13.614Z,11.99
2022-08-22T06:53:15.121Z,12.04
2022-08-22T06:55:47.866Z,11.58
2022-08-22T06:58:20.995Z,11.69
2022-08-22T07:01:05.732Z,11.77
2022-08-22T07:04:08.021Z,11.92
2022-08-22T07:06:38.726Z,11.53
2022-08-22T07:09:07.815Z,10.97
2022-08-22T07:11:39.835Z,11.65
2022-08-22T07:14:11.841Z,12.01
2022-08-22T07:16:58.472Z,12.56
2022-08-22T07:19:37.164Z,12.42
2022-08-22T07:22:28.959Z,12.55
2022-08-22T07:25:03.263Z,12.70
2022-08-22T07:28:03.970Z,12.70
2022-08-22T07:30:55.834Z,12.44
2022-08-22T07:33:51.810Z,13.38
2022-08-22T07:36:31.847Z,14.42
2022-08-22T07:39:21.541Z,14.27
2022-08-22T07:42:11.919Z,14.93
2022-08-22T07:44:49.562Z,15.07
2022-08-22T07:47:26.683Z,15.82
2022-08-22T07:49:56.974Z,16.14
2022-08-22T07:52:25.628Z,15.89
2022-08-22T07:55:03.617Z,16.12
2022-08-22T07:57:39.869Z,16.07
2022-08-22T08:00:15.217Z,15.92
2022-08-22T08:02:53.585Z,15.69
2022-08-22T08:05:24.352Z,15.94
2022-08-22T08:07:55.371Z,16.35
2022-08-22T08:10:28.477Z,16.43
2022-08-22T08:13:03.664Z,16.53
2022-08-22T08:15:36.014Z,15.85
2022-08-22T08:18:14.321Z,15.73
2022-08-22T08:20:42.176Z,16.29
2022-08-22T08:23:12.208Z,16.66
2022-08-22T08:26:07.525Z,16.62
2022-08-22T08:28:44.420Z,16.39
2022-08-22T08:31:29.215Z,16.16
2022-08-22T08:34:08.473Z,17.01
2022-08-22T08:36:58.042Z,17.14
2022-08-22T08:39:34.992Z,17.48
2022-08-22T08:42:27.938Z,17.45
2022-08-22T08:45:17.568Z,17.85
2022-08-22T08:48:00.330Z,18.11
2022-08-22T08:51:04.556Z,18.60
2022-08-22T08:54:04.054Z,18.72
2022-08-22T08:57:10.537Z,18.75
2022-08-22T09:00:04.691Z,18.92
2022-08-22T09:03:00.957Z,19.51
2022-08-22T09:05:58.875Z,19.69
2022-08-22T09:08:42.566Z,19.67
2022-08-22T09:11:44.781Z,19.83
2022-08-22T09:14:36.430Z,19.35
2022-08-22T09:17:21.875Z,20.62
2022-08-22T09:20:19.350Z,20.12
2022-08-22T09:23:24.571Z,20.00
2022-08-22T09:26:13.478Z,20.75
2022-08-22T09:28:49.319Z,20.81
2022-08-22T09:31:44.972Z,20.95
2022-08-22T09:34:26.864Z,21.34
2022-08-22T09:37:13.909Z,21.26
2022-08-22T09:39:54.043Z,22.09
2022-08-22T09:42:50.135Z,21.82
2022-08-22T09:45:47.035Z,22.18
2022-08-22T09:48:39.773Z,21.89
2022-08-22T09:51:31.751Z,22.39
2022-08-22T09:54:31.650Z,22.58
2022-08-22T09:57:31.731Z,22.66
2022-08-22T10:00:02.198Z,22.94
2022-08-22T10:03:21.946Z,22.50
2022-08-22T10:06:05.527Z,22.65
2022-08-22T10:09:24.214Z,23.41
2022-08-22T10:12:00.276Z,23.27
2022-08-22T10:15:09.083Z,22.99
2022-08-22T10:17:45.840Z,23.26
2022-08-22T10:20:27.748Z,23.61
2022-08-22T10:22:55.158Z,23.12
2022-08-22T10:25:45.177Z,23.26
2022-08-22T10:28:28.662Z,23.17
2022-08-22T10:31:34.664Z,23.23
2022-08-22T10:34:20.022Z,23.91
2022-08-22T10:37:26.575Z,23.99
2022-08-22T10:40:06.291Z,24.56
2022-08-22T10:42:39.113Z,24.70
2022-08-22T10:45:35.512Z,24.58
2022-08-22T10:48:09.793Z,24.49
2022-08-22T10:50:45.140Z,24.39
2022-08-22T10:53:57.806Z,24.27
2022-08-22T10:56:39.199Z,24.57
2022-08-22T10:59:14.162Z,23.91
2022-08-22T11:01:54.464Z,24.45
2022-08-22T11:04:54.393Z,24.50
2022-08-22T11:07:50.053Z,24.63
2022-08-22T11:10:45.567Z,24.60
2022-08-22T11:13:29.253Z,25.06
2022-08-22T11:16:43.291Z,24.75
2022-08-22T11:19:26.746Z,25.30
2022-08-22T11:22:00.303Z,25.51
2022-08-22T11:24:35.243Z,25.61
2022-08-22T11:27:39.831Z,25.38
2022-08-22T11:30:58.127Z,25.39
2022-08-22T11:34:02.411Z,25.63
2022-08-22T11:36:33.366Z,25.95
2022-08-22T11:39:13.725Z,26.27
2022-08-22T11:42:21.986Z,26.06
2022-08-22T11:44:59.404Z,26.19
2022-08-22T11:47:34.029Z,26.19
2022-08-22T11:50:13.616Z,26.10
2022-08-22T11:52:41.485Z,26.06
2022-08-22T11:55:32.579Z,25.88
2022-08-22T11:58:42.072Z,25.63
2022-08-22T12:01:34.256Z,25.85
2022-08-22T12:04:10.118Z,26.29
2022-08-22T12:07:01.585Z,26.27
2022-08-22T12:09:41.837Z,26.99
2022-08-22T12:12:22.114Z,26.91
2022-08-22T12:14:59.197Z,26.73
2022-08-22T12:17:55.409Z,26.92
2022-08-22T12:20:41.486Z,27.09
2022-08-22T12:23:50.597Z,26.50
2022-08-22T12:27:08.284Z,26.97
2022-08-22T12:30:04.700Z,27.21
2022-08-22T12:33:13.211Z,27.30
2022-08-22T12:36:18.329Z,27.55
2022-08-22T12:38:54.826Z,27.33
2022-08-22T12:42:00.083Z,27.51
2022-08-22T12:44:42.695Z,27.82
2022-08-22T12:47:21.214Z,27.98
2022-08-22T12:50:13.383Z,27.44
2022-08-22T12:53:15.866Z,27.77
2022-08-22T12:56:18.000Z,27.35
2022-08-22T12:59:25.050Z,27.02
2022-08-22T13:01:57.019Z,27.53
2022-08-22T13:04:33.513Z,27.58
2022-08-22T13:07:18.626Z,27.64
2022-08-22T13:09:59.565Z,27.51
2022-08-22T13:12:52.838Z,27.76
2022-08-22T13:15:42.792Z,27.72
2022-08-22T13:18:30.586Z,28.19
2022-08-22T13:21:02.893Z,28.25
2022-08-22T13:23:39.590Z,27.93
2022-08-22T13:26:33.801Z,28.05
2022-08-22T13:29:26.784Z,28.32
2022-08-22T13:32:03.103Z,28.81
2022-08-22T13:34:46.960Z,28.31
2022-08-22T13:37:44.573Z,27.98
2022-08-22T13:40:22.463Z,28.52
2022-08-22T13:42:56.711Z,28.58
2022-08-22T13:45:29.627Z,28.64
2022-08-22T13:48:03.807Z,28.47
2022-08-22T13:50:52.918Z,29.03
2022-08-22T13:53:40.956Z,28.51
2022-08-22T13:56:18.349Z,28.62
2022-08-22T13:58:50.741Z,28.71
2022-08-22T14:01:25.403Z,29.02
2022-08-22T14:03:58.030Z,28.65
2022-08-22T14:06:37.248Z,29.17
2022-08-22T14:09:37.010Z,28.82
2022-08-22T14:12:13.966Z,29.37
2022-08-22T14:14:49.241Z,29.78
2022-08-22T14:17:28.891Z,29.77
2022-08-22T14:20:07.007Z,29.55
2022-08-22T14:22:40.379Z,28.38
2022-08-22T14:25:17.522Z,29.57
2022-08-22T14:27:52.751Z,29.60
2022-08-22T14:30:24.560Z,29.82
2022-08-22T14:33:13.516Z,29.62
2022-08-22T14:35:52.867Z,30.30
2022-08-22T14:38:29.882Z,29.69
2022-08-22T14:41:16.220Z,29.99
2022-08-22T14:43:59.525Z,30.42
2022-08-22T14:46:42.645Z,30.42
2022-08-22T14:49:24.751Z,30.10
2022-08-22T14:52:33.651Z,30.34
2022-08-22T14:55:21.166Z,31.01
2022-08-22T14:58:05.965Z,30.87
2022-08-22T15:00:38.913Z,31.14
2022-08-22T15:03:28.382Z,31.34
2022-08-22T15:06:23.634Z,31.10
2022-08-22T15:08:51.932Z,31.46
2022-08-22T15:11:23.451Z,31.42
2022-08-22T15:14:02.210Z,31.95
2022-08-22T15:16:36.584Z,32.08
2022-08-22T15:19:36.324Z,32.29
2022-08-22T15:22:20.759Z,32.74
2022-08-22T15:25:07.139Z,32.54
2022-08-22T15:27:48.853Z,33.07
2022-08-22T15:30:21.083Z,32.94
2022-08-22T15:32:49.312Z,32.85
2022-08-22T15:35:29.964Z,33.31
2022-08-22T15:38:08.458Z,33.74
2022-08-22T15:40:45.694Z,33.82
2022-08-22T15:43:21.891Z,33.98
2022-08-22T15:45:53.018Z,33.75
2022-08-22T15:48:31.393Z,34.59
2022-08-22T15:51:02.486Z,34.47
2022-08-22T15:53:52.797Z,34.30
2022-08-22T15:56:36.830Z,34.61
2022-08-22T15:59:48.014Z,34.03
2022-08-22T16:02:40.435Z,34.04
2022-08-22T16:05:10.865Z,34.68
2022-08-22T16:07:41.487Z,34.95
2022-08-22T16:10:32.743Z,34.78
2022-08-22T16:13:38.170Z,34.38
2022-08-22T16:16:27.051Z,35.64
2022-08-22T16:18:54.719Z,35.13
2022-08-22T16:21:22.446Z,35.47
2022-08-22T16:23:58.798Z,36.34
2022-08-22T16:26:32.781Z,36.52
2022-08-22T16:29:07.090Z,36.61
2022-08-22T16:31:44.185Z,36.72
2022-08-22T16:34:20.775Z,35.98
2022-08-22T16:36:48.257Z,35.90
2022-08-22T16:39:21.728Z,36.56
2022-08-22T16:42:16.544Z,36.40
2022-08-22T16:45:11.020Z,36.18
2022-08-22T16:47:58.707Z,35.90
2022-08-22T16:50:30.499Z,36.13
2022-08-22T16:53:08.257Z,36.98
2022-08-22T16:55:36.302Z,36.58
2022-08-22T16:58:56.929Z,35.97
2022-08-22T17:01:43.246Z,37.09
2022-08-22T17:04:27.163Z,36.96
2022-08-22T17:07:10.857Z,37.66
2022-08-22T17:10:00.672Z,37.34
2022-08-22T17:12:40.339Z,37.59
2022-08-22T17:15:26.184Z,37.37
2022-08-22T17:18:11.745Z,37.70
2022-08-22T17:21:07.362Z,37.24
2022-08-22T17:23:44.005Z,38.19
2022-08-22T17:26:49.677Z,37.73
2022-08-22T17:29:24.771Z,38.27
2022-08-22T17:32:18.514Z,38.43
2022-08-22T17:35:32.873Z,38.24
2022-08-22T17:38:00.526Z,37.81
2022-08-22T17:40:38.268Z,39.08
2022-08-22T17:43:27.320Z,39.14
2022-08-22T17:46:03.019Z,38.06
2022-08-22T17:48:48.455Z,38.82
2022-08-22T17:51:34.611Z,38.73
2022-08-22T17:54:13.297Z,39.15
2022-08-22T17:57:03.257Z,38.80
2022-08-22T17:59:49.036Z,39.32
2022-08-22T18:02:39.754Z,36.44
2022-08-22T18:05:17.239Z,37.90
2022-08-22T18:07:59.002Z,38.89
2022-08-22T18:10:48.507Z,38.90
2022-08-22T18:13:34.803Z,38.44
2022-08-22T18:16:12.238Z,39.71
2022-08-22T18:19:14.047Z,39.62
2022-08-22T18:21:50.261Z,37.48
2022-08-22T18:24:33.302Z,38.94
2022-08-22T18:27:09.720Z,40.37
2022-08-22T18:30:02.959Z,40.60
2022-08-22T18:32:43.151Z,40.52
2022-08-22T18:35:21.890Z,40.80
2022-08-22T18:38:18.281Z,40.84
2022-08-22T18:40:54.723Z,40.66
2022-08-22T18:43:30.431Z,41.36
2022-08-22T18:46:03.939Z,40.63
2022-08-22T18:49:11.577Z,40.98
2022-08-22T18:51:38.605Z,41.51
2022-08-22T18:54:07.140Z,40.37
2022-08-22T18:56:37.655Z,41.64
2022-08-22T18:59:29.260Z,41.53
2022-08-22T19:02:14.938Z,42.12
2022-08-22T19:05:09.480Z,40.75
2022-08-22T19:07:37.008Z,40.79
2022-08-22T19:10:23.022Z,42.34
2022-08-22T19:13:05.820Z,42.23
2022-08-22T19:16:01.358Z,43.23
2022-08-22T19:18:34.749Z,39.97
2022-08-22T19:21:43.933Z,42.38
2022-08-22T19:24:36.944Z,43.10
2022-08-22T19:27:07.497Z,44.36
2022-08-22T19:29:34.924Z,43.50
2022-08-22T19:32:13.255Z,45.39
2022-08-22T19:34:46.887Z,44.10
2022-08-22T19:37:31.011Z,43.79
2022-08-22T19:40:10.509Z,45.62
2022-08-22T19:42:44.432Z,46.11
2022-08-22T19:45:26.734Z,46.54
2022-08-22T19:48:13.155Z,46.78
2022-08-22T19:50:43.392Z,45.71
2022-08-22T19:53:20.090Z,47.77
2022-08-22T19:56:12.986Z,46.93
2022-08-22T19:59:12.701Z,48.02
2022-08-22T20:01:40.159Z,46.04
2022-08-22T20:04:45.061Z,47.42
2022-08-22T20:07:42.407Z,48.30
2022-08-22T20:10:34.134Z,48.69
2022-08-22T20:13:07.570Z,47.93
2022-08-22T20:16:03.201Z,48.25
2022-08-22T20:19:06.145Z,48.80
2022-08-22T20:21:39.334Z,49.44
2022-08-22T20:24:11.983Z,48.90
2022-08-22T20:26:57.558Z,48.09
2022-08-22T20:29:35.499Z,50.49
2022-08-22T20:32:05.570Z,50.15
2022-08-22T20:34:38.215Z,49.80
2022-08-22T20:37:39.885Z,49.11
2022-08-22T20:40:51.815Z,50.15
2022-08-22T20:43:32.825Z,50.37
2022-08-22T20:46:19.253Z,48.90
2022-08-22T20:48:51.368Z,51.17
2022-08-22T20:51:25.253Z,50.93
2022-08-22T20:54:10.244Z,52.31
2022-08-22T20:56:53.461Z,52.29
2022-08-22T20:59:42.185Z,51.83
2022-08-22T21:02:29.002Z,50.18
2022-08-22T21:05:13.686Z,52.64
2022-08-22T21:07:44.379Z,51.99
2022-08-22T21:10:39.433Z,53.74
2022-08-22T21:13:23.754Z,52.46
2022-08-22T21:16:00.856Z,54.21
2022-08-22T21:18:33.751Z,51.76
2022-08-22T21:21:19.341Z,53.67
2022-08-22T21:24:01.642Z,54.15
2022-08-22T21:26:40.406Z,54.77
2022-08-22T21:29:23.836Z,55.16
2022-08-22T21:32:04.416Z,52.55
2022-08-22T21:34:42.492Z,54.37
2022-08-22T21:37:36.564Z,55.30
2022-08-22T21:40:15.364Z,53.37
2022-08-22T21:42:46.123Z,54.70
2022-08-22T21:45:47.302Z,57.91
2022-08-22T21:48:36.514Z,56.52
2022-08-22T21:51:25.055Z,58.18
2022-08-22T21:54:30.609Z,58.25
2022-08-22T21:57:17.432Z,58.58
2022-08-22T21:59:52.006Z,56.54
2022-08-22T22:02:29.501Z,56.11
2022-08-22T22:05:00.019Z,55.91
2022-08-22T22:07:28.532Z,56.20
2022-08-22T22:09:56.216Z,55.70
2022-08-22T22:12:24.488Z,55.83
2022-08-22T22:14:52.281Z,55.72
2022-08-22T22:17:20.745Z,55.79
2022-08-22T22:19:48.849Z,56.03
2022-08-22T22:22:17.132Z,56.43
2022-08-22T22:24:44.816Z,57.29
2022-08-22T22:27:16.753Z,57.32
2022-08-22T22:29:44.694Z,56.66
2022-08-22T22:32:12.182Z,57.03
2022-08-22T22:34:39.665Z,57.06
2022-08-22T22:37:12.218Z,59.76
2022-08-22T22:39:39.931Z,56.91
2022-08-22T22:42:09.161Z,56.28
2022-08-22T22:44:36.699Z,55.80
2022-08-22T22:47:05.828Z,55.85
2022-08-22T22:49:33.702Z,55.99
2022-08-22T22:52:02.204Z,56.10
2022-08-22T22:54:30.989Z,55.78
2022-08-22T22:57:02.138Z,55.66
2022-08-22T22:59:29.555Z,55.61
2022-08-22T23:02:11.255Z,58.94
2022-08-22T23:04:41.388Z,57.31
2022-08-22T23:07:11.254Z,56.52
2022-08-22T23:09:44.787Z,56.14
2022-08-22T23:12:14.657Z,56.71
2022-08-22T23:14:42.226Z,56.64
2022-08-22T23:17:10.131Z,57.12
2022-08-22T23:19:39.157Z,57.47
2022-08-22T23:22:08.081Z,58.36
2022-08-22T23:24:38.195Z,58.23
2022-08-22T23:27:07.307Z,58.44
2022-08-22T23:29:34.974Z,57.49
2022-08-22T23:32:04.237Z,58.51
2022-08-22T23:34:35.319Z,59.61
2022-08-22T23:37:06.444Z,59.80
2022-08-22T23:39:35.165Z,58.44
2022-08-22T23:42:03.039Z,58.82
2022-08-22T23:44:33.099Z,59.64
2022-08-22T23:47:01.472Z,58.45
2022-08-22T23:49:30.380Z,59.49
2022-08-22T23:51:58.901Z,58.17
2022-08-22T23:54:26.708Z,59.22
2022-08-22T23:56:57.818Z,60.63
2022-08-22T23:59:30.981Z,59.65
